createdAt,value
2023-07-04T00:01:25.360Z,13.60
2023-07-04T00:06:30.606Z,12.70
2023-07-04T00:11:34.592Z,13.70
2023-07-04T00:16:38.012Z,19.00
2023-07-04T00:21:42.623Z,15.40
2023-07-04T00:26:47.101Z,17.40
2023-07-04T00:31:49.950Z,13.30
2023-07-04T00:36:52.854Z,15.40
2023-07-04T00:41:55.877Z,16.60
2023-07-04T00:47:12.285Z,11.80
2023-07-04T00:52:27.480Z,13.00
2023-07-04T00:57:34.096Z,14.50
2023-07-04T01:02:39.023Z,13.20
2023-07-04T01:07:59.973Z,11.70
2023-07-04T01:13:03.187Z,12.90
2023-07-04T01:18:07.569Z,13.00
2023-07-04T01:23:34.948Z,10.70
2023-07-04T01:28:38.914Z,10.20
2023-07-04T01:33:41.861Z,12.70
2023-07-04T01:38:45.348Z,10.30
2023-07-04T01:43:59.710Z,14.90
2023-07-04T01:49:04.170Z,12.00
2023-07-04T01:54:09.615Z,11.10
2023-07-04T01:59:12.610Z,14.40
2023-07-04T02:04:15.679Z,11.70
2023-07-04T02:09:18.619Z,10.30
2023-07-04T02:14:21.639Z,15.20
2023-07-04T02:19:24.618Z,13.90
2023-07-04T02:24:27.592Z,8.50
2023-07-04T02:29:30.485Z,15.20
2023-07-04T02:34:33.492Z,11.00
2023-07-04T02:39:36.407Z,15.10
2023-07-04T02:44:39.309Z,14.50
2023-07-04T02:49:42.333Z,11.60
2023-07-04T02:54:45.398Z,10.00
2023-07-04T02:59:48.284Z,15.30
2023-07-04T03:04:53.224Z,13.80
2023-07-04T03:09:56.384Z,16.40
2023-07-04T03:14:59.276Z,13.60
2023-07-04T03:20:06.435Z,13.70
2023-07-04T03:25:11.120Z,13.90
2023-07-04T03:30:14.442Z,11.60
2023-07-04T03:35:17.560Z,13.80
2023-07-04T03:40:20.524Z,11.70
2023-07-04T03:45:23.391Z,12.80
2023-07-04T03:50:26.282Z,14.90
2023-07-04T03:55:29.158Z,13.70
2023-07-04T04:00:32.507Z,11.90
2023-07-04T04:05:35.368Z,11.90
2023-07-04T04:10:38.351Z,13.40
2023-07-04T04:15:41.268Z,13.40
2023-07-04T04:20:44.205Z,12.70
2023-07-04T04:25:47.186Z,13.30
2023-07-04T04:30:50.271Z,12.10
2023-07-04T04:35:53.471Z,11.60
2023-07-04T04:41:04.882Z,12.00
2023-07-04T04:46:07.889Z,13.30
2023-07-04T04:51:14.277Z,10.60
2023-07-04T04:56:17.398Z,10.80
2023-07-04T05:01:24.814Z,16.20
2023-07-04T05:06:28.250Z,13.50
2023-07-04T05:11:33.743Z,10.10
2023-07-04T05:16:36.935Z,10.60
2023-07-04T05:21:39.936Z,10.10
2023-07-04T05:26:42.861Z,11.00
2023-07-04T05:31:45.991Z,10.50
2023-07-04T05:36:48.937Z,13.10
2023-07-04T05:41:51.898Z,10.60
2023-07-04T05:46:55.990Z,12.00
2023-07-04T05:51:58.892Z,12.80
2023-07-04T05:57:01.800Z,9.60
2023-07-04T06:02:05.203Z,13.10
2023-07-04T06:07:08.181Z,9.30
2023-07-04T06:12:11.108Z,12.70
2023-07-04T06:17:14.209Z,13.20
2023-07-04T06:22:17.194Z,10.40
2023-07-04T06:27:20.199Z,13.30
2023-07-04T06:32:24.027Z,10.80
2023-07-04T06:37:26.984Z,11.10
2023-07-04T06:42:31.801Z,10.80
2023-07-04T06:47:34.790Z,11.40
2023-07-04T06:52:37.829Z,11.20
2023-07-04T06:57:40.844Z,10.20
2023-07-04T07:02:43.879Z,12.30
2023-07-04T07:07:47.768Z,9.30
2023-07-04T07:12:50.643Z,12.20
2023-07-04T07:17:53.556Z,11.30
2023-07-04T07:22:56.528Z,10.70
2023-07-04T07:27:59.407Z,13.30
2023-07-04T07:33:02.535Z,10.60
2023-07-04T07:38:05.849Z,11.50
2023-07-04T07:43:08.761Z,10.80
2023-07-04T07:48:14.336Z,9.20
2023-07-04T07:53:17.273Z,10.50
2023-07-04T07:58:20.241Z,11.10
2023-07-04T08:03:23.885Z,10.10
2023-07-04T08:08:27.098Z,10.30
2023-07-04T08:13:30.115Z,9.10
2023-07-04T08:18:37.784Z,12.30
2023-07-04T08:23:43.870Z,11.00
2023-07-04T08:28:57.936Z,12.20
2023-07-04T08:34:10.524Z,15.00
2023-07-04T08:39:15.178Z,14.10
2023-07-04T08:44:23.508Z,13.10
2023-07-04T08:49:51.351Z,13.10
2023-07-04T08:54:56.282Z,15.40
2023-07-04T09:00:26.477Z,15.30
2023-07-04T09:05:36.536Z,13.70
2023-07-04T09:10:52.670Z,11.50
2023-07-04T09:15:59.769Z,11.60
2023-07-04T09:21:20.287Z,15.90
2023-07-04T09:26:29.246Z,17.70
2023-07-04T09:31:37.802Z,14.10
2023-07-04T09:36:41.093Z,14.30
2023-07-04T09:47:14.281Z,13.70
2023-07-04T09:52:23.286Z,13.10
2023-07-04T09:57:31.414Z,14.00
2023-07-04T10:02:36.391Z,18.10
2023-07-04T10:07:39.495Z,16.10
2023-07-04T10:12:46.343Z,12.00
2023-07-04T10:17:49.368Z,14.20
2023-07-04T10:22:54.212Z,16.80
2023-07-04T10:28:28.384Z,18.80
2023-07-04T10:33:46.969Z,15.10
2023-07-04T10:38:52.343Z,18.80
2023-07-04T10:44:04.673Z,14.30
2023-07-04T10:49:16.527Z,17.30
2023-07-04T10:54:20.479Z,17.60
2023-07-04T10:59:30.965Z,17.60
2023-07-04T11:04:38.440Z,14.30
2023-07-04T11:09:43.259Z,16.10
2023-07-04T11:14:48.993Z,16.60
2023-07-04T11:20:18.344Z,15.50
2023-07-04T11:25:43.067Z,14.40
2023-07-04T11:30:50.820Z,15.00
2023-07-04T11:35:55.205Z,13.80
2023-07-04T11:40:58.846Z,13.10
2023-07-04T11:46:04.127Z,11.40
2023-07-04T11:51:13.059Z,14.40
2023-07-04T11:56:24.594Z,12.80
2023-07-04T12:01:58.621Z,13.80
2023-07-04T12:07:49.553Z,12.40
2023-07-04T12:13:03.868Z,11.80
2023-07-04T12:18:22.838Z,17.50
2023-07-04T12:23:26.442Z,15.70
2023-07-04T12:28:32.182Z,14.20
2023-07-04T12:33:45.639Z,11.30
2023-07-04T12:38:51.878Z,16.20
2023-07-04T12:54:18.556Z,11.20
2023-07-04T12:59:37.555Z,13.80
2023-07-04T13:04:41.165Z,14.30
2023-07-04T13:09:45.100Z,12.90
2023-07-04T13:14:48.178Z,11.30
2023-07-04T13:19:51.574Z,13.40
2023-07-04T13:35:42.840Z,13.90
2023-07-04T13:40:45.843Z,13.30
2023-07-04T13:45:49.801Z,12.30
2023-07-04T13:50:56.799Z,11.90
2023-07-04T13:56:00.055Z,10.00
2023-07-04T14:06:10.337Z,11.70
2023-07-04T14:11:20.189Z,12.90
2023-07-04T14:21:30.781Z,10.20
2023-07-04T14:26:33.882Z,9.70
2023-07-04T14:31:37.193Z,10.30
2023-07-04T14:36:40.247Z,11.50
2023-07-04T14:46:49.238Z,9.10
2023-07-04T14:51:52.284Z,11.50
2023-07-04T14:56:56.772Z,9.00
2023-07-04T15:02:01.277Z,9.20
2023-07-04T15:07:04.621Z,8.90
2023-07-04T15:12:07.931Z,9.30
2023-07-04T15:17:11.149Z,10.60
2023-07-04T15:22:14.336Z,8.90
2023-07-04T15:27:17.668Z,9.00
2023-07-04T15:32:20.605Z,11.50
2023-07-04T15:37:25.915Z,8.70
2023-07-04T15:42:29.336Z,9.60
2023-07-04T15:47:32.299Z,9.00
2023-07-04T15:52:35.463Z,8.10
2023-07-04T15:57:40.324Z,5.90
2023-07-04T16:02:43.644Z,10.10
2023-07-04T16:07:47.538Z,7.90
2023-07-04T16:12:50.699Z,8.80
2023-07-04T16:17:53.848Z,7.90
2023-07-04T16:22:57.033Z,8.70
2023-07-04T16:28:00.454Z,16.00
2023-07-04T16:33:03.955Z,8.40
2023-07-04T16:38:07.018Z,12.50
2023-07-04T16:43:10.244Z,8.90
2023-07-04T16:48:13.682Z,9.20
2023-07-04T16:53:17.028Z,8.50
2023-07-04T16:58:20.055Z,8.20
2023-07-04T17:03:23.636Z,11.50
2023-07-04T17:08:29.206Z,10.80
2023-07-04T17:13:38.707Z,8.20
2023-07-04T17:18:43.557Z,8.10
2023-07-04T17:23:46.669Z,9.20
2023-07-04T17:28:49.669Z,8.00
2023-07-04T17:33:52.623Z,9.50
2023-07-04T17:38:55.840Z,9.50
2023-07-04T17:43:59.985Z,7.50
2023-07-04T17:49:03.563Z,11.40
2023-07-04T17:54:06.484Z,10.40
2023-07-04T17:59:11.525Z,10.60
2023-07-04T18:04:14.483Z,10.10
2023-07-04T18:09:19.905Z,8.40
2023-07-04T18:14:23.955Z,11.30
2023-07-04T18:19:27.017Z,13.00
2023-07-04T18:24:30.161Z,13.40
2023-07-04T18:29:36.291Z,12.80
2023-07-04T18:34:39.685Z,12.60
2023-07-04T18:39:43.363Z,9.10
2023-07-04T18:44:46.455Z,10.80
2023-07-04T18:49:51.668Z,12.20
2023-07-04T18:54:56.226Z,10.70
2023-07-04T18:59:59.403Z,12.50
2023-07-04T19:05:04.327Z,15.30
2023-07-04T19:10:12.900Z,15.80
2023-07-04T19:15:18.361Z,17.80
2023-07-04T19:20:24.051Z,15.80
2023-07-04T19:25:27.289Z,13.90
2023-07-04T19:30:31.719Z,14.00
2023-07-04T19:35:43.784Z,13.40
2023-07-04T19:41:03.298Z,12.90
2023-07-04T19:46:09.541Z,12.00
2023-07-04T19:51:21.841Z,11.60
2023-07-04T19:56:31.816Z,14.40
2023-07-04T20:01:37.553Z,14.40
2023-07-04T20:06:41.686Z,14.60
2023-07-04T20:11:44.778Z,11.00
2023-07-04T20:16:47.765Z,16.90
2023-07-04T20:21:51.223Z,12.80
2023-07-04T20:26:54.257Z,12.70
2023-07-04T20:31:58.324Z,10.70
2023-07-04T20:37:01.785Z,14.90
2023-07-04T20:42:08.177Z,13.70
2023-07-04T20:47:11.769Z,13.80
2023-07-04T20:52:28.553Z,17.30
2023-07-04T20:57:32.272Z,14.10
2023-07-04T21:02:35.890Z,11.30
2023-07-04T21:07:42.160Z,12.80
2023-07-04T21:12:48.669Z,13.60
2023-07-04T21:17:52.008Z,13.10
2023-07-04T21:22:57.574Z,9.60
2023-07-04T21:28:00.833Z,10.90
2023-07-04T21:33:04.008Z,11.00
2023-07-04T21:38:11.995Z,9.00
2023-07-04T21:43:14.972Z,8.70
2023-07-04T21:48:18.053Z,10.20
2023-07-04T21:53:21.935Z,7.80
2023-07-04T21:58:25.580Z,7.90
2023-07-04T22:03:29.964Z,7.00
2023-07-04T22:08:36.238Z,6.60
2023-07-04T22:13:44.654Z,7.10
2023-07-04T22:18:48.321Z,8.40
2023-07-04T22:23:51.724Z,7.80
2023-07-04T22:28:54.702Z,10.30
2023-07-04T22:34:05.936Z,9.80
2023-07-04T22:39:09.999Z,9.50
2023-07-04T22:44:13.789Z,7.70
2023-07-04T22:49:16.811Z,6.90
2023-07-04T22:54:19.837Z,7.00
2023-07-04T22:59:22.830Z,7.60
2023-07-04T23:04:26.379Z,8.00
2023-07-04T23:09:29.683Z,8.10
2023-07-04T23:14:33.511Z,8.40
2023-07-04T23:19:36.422Z,8.00
2023-07-04T23:24:39.784Z,7.80
2023-07-04T23:29:42.684Z,6.40
2023-07-04T23:34:46.047Z,9.20
2023-07-04T23:39:49.137Z,8.90
2023-07-04T23:44:52.268Z,8.20
2023-07-04T23:49:55.378Z,8.60
2023-07-04T23:54:58.336Z,8.90
